createdAt,value
2023-02-06T00:01:51.372Z,90.51
2023-02-06T00:04:19.685Z,90.48
2023-02-06T00:06:48.131Z,90.83
2023-02-06T00:09:16.497Z,90.67
2023-02-06T00:11:44.816Z,90.46
2023-02-06T00:14:13.131Z,90.49
2023-02-06T00:16:41.512Z,90.82
2023-02-06T00:19:09.782Z,90.84
2023-02-06T00:21:38.167Z,90.94
2023-02-06T00:24:07.027Z,90.91
2023-02-06T00:26:35.635Z,91.01
2023-02-06T00:29:04.107Z,90.98
2023-02-06T00:31:32.635Z,90.97
2023-02-06T00:34:00.964Z,91.16
2023-02-06T00:36:29.463Z,91.34
2023-02-06T00:38:57.826Z,91.31
2023-02-06T00:41:26.220Z,90.63
2023-02-06T00:43:54.466Z,90.84
2023-02-06T00:46:25.426Z,90.91
2023-02-06T00:48:53.794Z,91.10
2023-02-06T00:51:22.111Z,91.18
2023-02-06T00:53:51.284Z,91.27
2023-02-06T00:56:20.813Z,91.28
2023-02-06T00:58:49.071Z,91.09
2023-02-06T01:01:17.882Z,91.40
2023-02-06T01:03:46.315Z,91.57
2023-02-06T01:06:14.636Z,91.89
2023-02-06T01:08:43.188Z,91.87
2023-02-06T01:11:18.110Z,91.83
2023-02-06T01:13:47.259Z,91.83
2023-02-06T01:16:24.431Z,91.90
2023-02-06T01:18:54.560Z,92.04
2023-02-06T01:21:25.356Z,92.13
2023-02-06T01:23:55.174Z,92.22
2023-02-06T01:26:26.754Z,92.21
2023-02-06T01:28:56.370Z,92.36
2023-02-06T01:31:27.764Z,92.26
2023-02-06T01:33:58.124Z,92.30
2023-02-06T01:36:27.213Z,92.29
2023-02-06T01:38:58.756Z,92.38
2023-02-06T01:41:27.263Z,92.50
2023-02-06T01:44:15.680Z,92.74
2023-02-06T01:46:49.176Z,92.89
2023-02-06T01:49:25.068Z,92.83
2023-02-06T01:52:20.025Z,92.90
2023-02-06T01:54:53.720Z,92.99
2023-02-06T01:57:25.065Z,93.19
2023-02-06T02:00:01.394Z,93.18
2023-02-06T02:02:45.380Z,93.20
2023-02-06T02:05:14.600Z,93.41
2023-02-06T02:07:51.449Z,93.58
2023-02-06T02:10:19.780Z,93.51
2023-02-06T02:12:48.284Z,93.41
2023-02-06T02:15:17.952Z,93.42
2023-02-06T02:17:58.891Z,93.33
2023-02-06T02:21:04.049Z,93.40
2023-02-06T02:24:00.726Z,93.40
2023-02-06T02:26:45.157Z,93.40
2023-02-06T02:29:44.393Z,93.22
2023-02-06T02:32:34.528Z,93.20
2023-02-06T02:35:18.854Z,93.34
2023-02-06T02:38:07.371Z,93.19
2023-02-06T02:40:45.049Z,93.16
2023-02-06T02:43:24.391Z,93.26
2023-02-06T02:46:02.795Z,93.36
2023-02-06T02:48:40.855Z,93.51
2023-02-06T02:51:10.656Z,93.34
2023-02-06T02:53:39.146Z,93.65
2023-02-06T02:56:20.021Z,93.88
2023-02-06T02:58:53.664Z,93.87
2023-02-06T03:01:28.971Z,93.88
2023-02-06T03:04:03.524Z,93.99
2023-02-06T03:06:46.367Z,93.98
2023-02-06T03:09:32.599Z,94.14
2023-02-06T03:12:32.442Z,94.34
2023-02-06T03:15:29.863Z,94.46
2023-02-06T03:18:25.663Z,94.74
2023-02-06T03:20:54.680Z,94.74
2023-02-06T03:23:29.118Z,94.70
2023-02-06T03:26:02.295Z,94.78
2023-02-06T03:28:43.335Z,94.85
2023-02-06T03:31:15.796Z,94.91
2023-02-06T03:33:51.791Z,94.90
2023-02-06T03:36:20.241Z,94.90
2023-02-06T03:38:51.239Z,94.85
2023-02-06T03:41:25.896Z,94.99
2023-02-06T03:43:55.825Z,95.07
2023-02-06T03:46:28.446Z,95.08
2023-02-06T03:49:01.643Z,95.06
2023-02-06T03:51:43.188Z,94.98
2023-02-06T03:54:13.225Z,94.91
2023-02-06T03:56:51.866Z,94.97
2023-02-06T03:59:21.272Z,94.95
2023-02-06T04:01:53.656Z,94.96
2023-02-06T04:04:29.351Z,95.05
2023-02-06T04:07:07.284Z,94.98
2023-02-06T04:09:35.641Z,95.04
2023-02-06T04:12:03.945Z,95.07
2023-02-06T04:14:32.368Z,95.30
2023-02-06T04:17:00.711Z,95.39
2023-02-06T04:19:29.172Z,95.44
2023-02-06T04:21:57.532Z,95.37
2023-02-06T04:24:25.980Z,95.35
2023-02-06T04:26:54.372Z,95.44
2023-02-06T04:29:22.635Z,95.57
2023-02-06T04:31:51.371Z,95.68
2023-02-06T04:34:19.749Z,95.89
2023-02-06T04:36:48.165Z,95.85
2023-02-06T04:39:16.615Z,95.80
2023-02-06T04:41:44.969Z,95.92
2023-02-06T04:44:13.211Z,96.01
2023-02-06T04:46:43.329Z,96.14
2023-02-06T04:49:12.967Z,96.18
2023-02-06T04:51:41.893Z,96.29
2023-02-06T04:54:13.640Z,96.36
2023-02-06T04:56:41.961Z,96.30
2023-02-06T04:59:10.517Z,96.37
2023-02-06T05:01:38.975Z,96.30
2023-02-06T05:04:07.848Z,96.14
2023-02-06T05:06:36.588Z,96.14
2023-02-06T05:09:06.260Z,96.22
2023-02-06T05:11:34.518Z,96.24
2023-02-06T05:14:02.783Z,96.22
2023-02-06T05:16:31.263Z,96.04
2023-02-06T05:18:59.565Z,95.98
2023-02-06T05:21:28.614Z,96.04
2023-02-06T05:23:57.124Z,96.06
2023-02-06T05:26:25.430Z,96.11
2023-02-06T05:28:53.858Z,96.09
2023-02-06T05:31:22.668Z,96.17
2023-02-06T05:33:55.131Z,96.24
2023-02-06T05:36:23.892Z,96.27
2023-02-06T05:38:52.326Z,96.39
2023-02-06T05:41:20.897Z,96.48
2023-02-06T05:43:49.295Z,96.31
2023-02-06T05:46:17.933Z,96.39
2023-02-06T05:48:46.764Z,96.48
2023-02-06T05:51:15.248Z,96.41
2023-02-06T05:53:43.796Z,96.48
2023-02-06T05:56:12.167Z,96.59
2023-02-06T05:58:40.617Z,96.45
2023-02-06T06:01:10.855Z,96.52
2023-02-06T06:03:39.254Z,96.52
2023-02-06T06:06:08.293Z,96.47
2023-02-06T06:08:36.591Z,96.60
2023-02-06T06:11:05.075Z,96.62
2023-02-06T06:13:33.447Z,96.53
2023-02-06T06:16:01.776Z,96.41
2023-02-06T06:18:30.165Z,96.44
2023-02-06T06:20:59.338Z,96.51
2023-02-06T06:23:27.692Z,96.54
2023-02-06T06:25:55.963Z,96.75
2023-02-06T06:28:24.448Z,96.82
2023-02-06T06:31:04.907Z,96.90
2023-02-06T06:33:36.061Z,96.97
2023-02-06T06:36:06.094Z,96.84
2023-02-06T06:38:35.167Z,96.97
2023-02-06T06:41:04.189Z,96.98
2023-02-06T06:43:33.675Z,97.01
2023-02-06T06:46:02.403Z,96.81
2023-02-06T06:48:31.954Z,96.91
2023-02-06T06:51:00.587Z,96.71
2023-02-06T06:53:32.053Z,96.72
2023-02-06T06:56:08.287Z,96.89
2023-02-06T06:58:36.964Z,96.86
2023-02-06T07:01:06.246Z,96.72
2023-02-06T07:03:35.305Z,96.71
2023-02-06T07:06:05.279Z,96.75
2023-02-06T07:08:34.488Z,96.54
2023-02-06T07:11:03.039Z,96.47
2023-02-06T07:13:31.473Z,96.45
2023-02-06T07:15:59.808Z,96.49
2023-02-06T07:18:29.070Z,96.42
2023-02-06T07:20:58.095Z,96.21
2023-02-06T07:23:26.812Z,95.78
2023-02-06T07:26:09.501Z,95.67
2023-02-06T07:28:38.345Z,95.14
2023-02-06T07:31:08.155Z,95.45
2023-02-06T07:33:36.770Z,95.55
2023-02-06T07:36:05.565Z,95.09
2023-02-06T07:38:36.997Z,95.02
2023-02-06T07:41:05.657Z,95.00
2023-02-06T07:43:34.349Z,94.94
2023-02-06T07:46:05.022Z,94.82
2023-02-06T07:48:43.084Z,94.56
2023-02-06T07:51:11.772Z,94.34
2023-02-06T07:53:40.350Z,93.94
2023-02-06T07:56:15.068Z,93.60
2023-02-06T07:58:48.137Z,93.31
2023-02-06T08:01:22.736Z,93.34
2023-02-06T08:03:55.682Z,93.25
2023-02-06T08:06:27.042Z,92.39
2023-02-06T08:08:56.576Z,92.23
2023-02-06T08:11:27.910Z,92.26
2023-02-06T08:13:57.531Z,92.00
2023-02-06T08:16:26.037Z,91.76
2023-02-06T08:18:54.582Z,91.65
2023-02-06T08:21:25.737Z,91.44
2023-02-06T08:23:55.796Z,91.14
2023-02-06T08:26:26.082Z,90.97
2023-02-06T08:28:56.781Z,90.62
2023-02-06T08:31:29.760Z,90.16
2023-02-06T08:33:59.134Z,89.92
2023-02-06T08:36:31.577Z,89.75
2023-02-06T08:39:01.401Z,89.58
2023-02-06T08:41:41.223Z,89.12
2023-02-06T08:44:16.689Z,88.60
2023-02-06T08:46:47.829Z,88.44
2023-02-06T08:49:21.117Z,88.15
2023-02-06T08:51:50.354Z,87.56
2023-02-06T08:54:23.480Z,86.69
2023-02-06T08:56:52.976Z,85.91
2023-02-06T08:59:21.349Z,84.65
2023-02-06T09:01:49.900Z,84.02
2023-02-06T09:04:19.755Z,83.88
2023-02-06T09:06:49.510Z,83.28
2023-02-06T09:09:19.263Z,81.58
2023-02-06T09:11:50.863Z,81.07
2023-02-06T09:14:20.392Z,81.47
2023-02-06T09:16:48.943Z,81.22
2023-02-06T09:19:17.372Z,80.98
2023-02-06T09:21:45.829Z,80.86
2023-02-06T09:24:15.151Z,80.16
2023-02-06T09:26:58.647Z,79.42
2023-02-06T09:29:34.072Z,77.53
2023-02-06T09:32:02.752Z,75.87
2023-02-06T09:34:31.328Z,74.24
2023-02-06T09:37:03.130Z,75.93
2023-02-06T09:39:32.676Z,74.54
2023-02-06T09:42:12.752Z,70.67
2023-02-06T09:44:44.418Z,69.76
2023-02-06T09:47:32.373Z,69.48
2023-02-06T09:50:12.256Z,68.76
2023-02-06T09:52:52.474Z,70.46
2023-02-06T09:55:36.652Z,68.01
2023-02-06T09:58:27.120Z,67.49
2023-02-06T10:01:08.521Z,69.12
2023-02-06T10:03:58.642Z,67.64
2023-02-06T10:06:50.071Z,68.26
2023-02-06T10:09:45.435Z,69.96
2023-02-06T10:12:31.193Z,69.22
2023-02-06T10:15:12.727Z,69.96
2023-02-06T10:18:06.173Z,68.26
2023-02-06T10:20:51.710Z,67.76
2023-02-06T10:23:48.756Z,66.64
2023-02-06T10:26:19.670Z,66.82
2023-02-06T10:28:58.312Z,68.35
2023-02-06T10:31:45.068Z,68.88
2023-02-06T10:34:16.261Z,68.88
2023-02-06T10:37:06.773Z,69.71
2023-02-06T10:40:24.612Z,69.59
2023-02-06T10:43:33.792Z,69.83
2023-02-06T10:46:43.737Z,69.53
2023-02-06T10:49:44.235Z,70.02
2023-02-06T10:52:29.299Z,69.03
2023-02-06T10:55:04.437Z,68.87
2023-02-06T10:57:34.575Z,69.47
2023-02-06T11:00:05.547Z,68.21
2023-02-06T11:03:06.266Z,67.20
2023-02-06T11:05:38.520Z,67.93
2023-02-06T11:08:14.238Z,68.08
2023-02-06T11:10:42.972Z,65.71
2023-02-06T11:13:14.273Z,65.71
2023-02-06T11:16:03.462Z,66.26
2023-02-06T11:18:39.983Z,66.21
2023-02-06T11:21:10.900Z,67.54
2023-02-06T11:23:40.750Z,67.32
2023-02-06T11:26:14.440Z,67.28
2023-02-06T11:28:53.065Z,67.98
2023-02-06T11:31:44.052Z,67.31
2023-02-06T11:34:33.213Z,68.32
2023-02-06T11:37:35.013Z,68.22
2023-02-06T11:40:18.672Z,66.05
2023-02-06T11:42:55.245Z,64.97
2023-02-06T11:45:36.016Z,66.68
2023-02-06T11:48:06.678Z,66.79
2023-02-06T11:50:38.181Z,65.91
2023-02-06T11:53:19.035Z,66.76
2023-02-06T11:56:03.843Z,65.91
2023-02-06T11:58:35.061Z,66.15
2023-02-06T12:01:09.804Z,65.52
2023-02-06T12:03:55.340Z,64.56
2023-02-06T12:06:37.320Z,64.16
2023-02-06T12:09:12.785Z,64.36
2023-02-06T12:12:16.779Z,65.74
2023-02-06T12:14:55.817Z,66.64
2023-02-06T12:18:10.445Z,67.18
2023-02-06T12:21:00.489Z,67.28
2023-02-06T12:23:35.562Z,65.66
2023-02-06T12:26:12.055Z,65.90
2023-02-06T12:28:50.305Z,66.24
2023-02-06T12:31:22.674Z,67.02
2023-02-06T12:34:29.858Z,67.04
2023-02-06T12:37:21.022Z,66.04
2023-02-06T12:39:53.399Z,66.53
2023-02-06T12:42:34.190Z,66.32
2023-02-06T12:45:21.615Z,66.40
2023-02-06T12:48:19.666Z,66.83
2023-02-06T12:51:19.765Z,66.57
2023-02-06T12:54:03.656Z,66.88
2023-02-06T12:56:40.652Z,66.11
2023-02-06T12:59:29.998Z,66.79
2023-02-06T13:02:19.784Z,67.67
2023-02-06T13:04:57.250Z,67.67
2023-02-06T13:07:28.307Z,67.30
2023-02-06T13:10:08.134Z,68.56
2023-02-06T13:12:39.757Z,69.37
2023-02-06T13:15:26.469Z,68.74
2023-02-06T13:18:00.173Z,68.40
2023-02-06T13:20:29.864Z,68.79
2023-02-06T13:23:12.309Z,69.37
2023-02-06T13:25:48.963Z,69.13
2023-02-06T13:28:22.082Z,69.02
2023-02-06T13:31:01.211Z,69.57
2023-02-06T13:34:00.855Z,69.96
2023-02-06T13:36:50.216Z,70.28
2023-02-06T13:39:25.466Z,70.54
2023-02-06T13:41:54.991Z,70.92
2023-02-06T13:44:36.891Z,70.61
2023-02-06T13:47:36.847Z,69.99
2023-02-06T13:50:28.856Z,69.90
2023-02-06T13:53:11.473Z,70.26
2023-02-06T13:55:52.664Z,70.00
2023-02-06T13:58:47.764Z,69.92
2023-02-06T14:01:30.786Z,69.11
2023-02-06T14:04:02.333Z,70.43
2023-02-06T14:06:52.590Z,70.63
2023-02-06T14:09:50.686Z,71.16
2023-02-06T14:12:44.701Z,70.18
2023-02-06T14:15:24.787Z,69.30
2023-02-06T14:18:07.326Z,69.71
2023-02-06T14:20:54.267Z,69.44
2023-02-06T14:24:02.505Z,69.60
2023-02-06T14:26:52.989Z,70.11
2023-02-06T14:29:43.383Z,69.98
2023-02-06T14:32:24.183Z,69.84
2023-02-06T14:35:28.291Z,70.45
2023-02-06T14:38:26.365Z,70.09
2023-02-06T14:41:06.803Z,68.97
2023-02-06T14:43:39.516Z,68.79
2023-02-06T14:47:05.033Z,68.37
2023-02-06T14:50:25.544Z,68.91
2023-02-06T14:53:02.315Z,69.17
2023-02-06T14:55:37.560Z,69.67
2023-02-06T14:58:28.937Z,70.21
2023-02-06T15:01:20.250Z,70.37
2023-02-06T15:03:55.600Z,70.68
2023-02-06T15:06:34.898Z,70.78
2023-02-06T15:09:08.315Z,70.59
2023-02-06T15:11:38.692Z,70.98
2023-02-06T15:14:26.148Z,71.02
2023-02-06T15:17:02.278Z,71.87
2023-02-06T15:19:36.384Z,71.82
2023-02-06T15:22:17.017Z,72.06
2023-02-06T15:24:57.834Z,72.10
2023-02-06T15:27:36.314Z,71.96
2023-02-06T15:30:26.025Z,71.86
2023-02-06T15:33:00.452Z,72.45
2023-02-06T15:35:39.373Z,72.26
2023-02-06T15:38:15.952Z,72.71
2023-02-06T15:40:59.929Z,73.18
2023-02-06T15:43:30.098Z,73.30
2023-02-06T15:46:01.916Z,73.41
2023-02-06T15:48:49.279Z,73.31
2023-02-06T15:51:20.977Z,73.53
2023-02-06T15:53:51.903Z,73.63
2023-02-06T15:56:30.892Z,73.55
2023-02-06T15:59:06.278Z,73.56
2023-02-06T16:01:40.342Z,73.67
2023-02-06T16:04:15.004Z,73.84
2023-02-06T16:06:44.646Z,73.96
2023-02-06T16:09:21.905Z,74.43
2023-02-06T16:11:54.261Z,74.66
2023-02-06T16:14:30.748Z,74.88
2023-02-06T16:17:05.957Z,75.36
2023-02-06T16:19:40.400Z,75.66
2023-02-06T16:22:40.167Z,76.01
2023-02-06T16:25:21.054Z,76.03
2023-02-06T16:27:51.453Z,76.43
2023-02-06T16:30:25.369Z,76.39
2023-02-06T16:32:56.050Z,76.51
2023-02-06T16:35:25.163Z,76.69
2023-02-06T16:37:58.228Z,76.95
2023-02-06T16:40:52.030Z,77.38
2023-02-06T16:43:20.577Z,77.59
2023-02-06T16:45:50.425Z,77.63
2023-02-06T16:48:19.012Z,77.73
2023-02-06T16:50:52.325Z,78.06
2023-02-06T16:53:24.069Z,78.34
2023-02-06T16:55:52.571Z,78.68
2023-02-06T16:58:23.955Z,79.25
2023-02-06T17:00:52.439Z,79.59
2023-02-06T17:03:20.833Z,79.76
2023-02-06T17:05:53.094Z,80.10
2023-02-06T17:08:25.154Z,80.26
2023-02-06T17:10:53.765Z,80.51
2023-02-06T17:13:26.703Z,80.94
2023-02-06T17:15:55.282Z,81.06
2023-02-06T17:18:23.789Z,81.30
2023-02-06T17:21:01.443Z,81.50
2023-02-06T17:23:29.960Z,81.62
2023-02-06T17:25:58.292Z,81.83
2023-02-06T17:28:26.771Z,82.07
2023-02-06T17:30:55.326Z,82.26
2023-02-06T17:33:23.899Z,82.55
2023-02-06T17:35:58.869Z,83.04
2023-02-06T17:38:29.431Z,83.22
2023-02-06T17:40:57.947Z,83.31
2023-02-06T17:43:26.397Z,83.50
2023-02-06T17:45:55.066Z,83.67
2023-02-06T17:48:32.549Z,84.00
2023-02-06T17:51:05.588Z,84.22
2023-02-06T17:53:34.000Z,84.42
2023-02-06T17:56:13.201Z,84.69
2023-02-06T17:58:44.590Z,85.04
2023-02-06T18:01:16.721Z,85.25
2023-02-06T18:03:47.908Z,85.51
2023-02-06T18:06:17.695Z,85.51
2023-02-06T18:08:50.720Z,85.55
2023-02-06T18:11:21.589Z,85.69
2023-02-06T18:13:51.145Z,86.21
2023-02-06T18:16:23.574Z,86.45
2023-02-06T18:18:53.038Z,86.60
2023-02-06T18:21:24.700Z,86.65
2023-02-06T18:23:54.387Z,86.70
2023-02-06T18:26:24.400Z,86.65
2023-02-06T18:28:52.784Z,86.78
2023-02-06T18:31:33.564Z,86.91
2023-02-06T18:34:07.827Z,87.13
2023-02-06T18:36:38.955Z,87.31
2023-02-06T18:39:07.364Z,87.25
2023-02-06T18:41:54.441Z,87.15
2023-02-06T18:44:27.560Z,87.30
2023-02-06T18:47:07.126Z,87.47
2023-02-06T18:49:38.331Z,87.74
2023-02-06T18:52:07.541Z,87.99
2023-02-06T18:54:39.115Z,88.28
2023-02-06T18:57:09.821Z,88.36
2023-02-06T18:59:38.395Z,88.42
2023-02-06T19:02:10.316Z,88.53
2023-02-06T19:04:40.835Z,88.62
2023-02-06T19:07:11.316Z,88.68
2023-02-06T19:09:41.783Z,88.75
2023-02-06T19:12:12.502Z,88.75
2023-02-06T19:14:41.655Z,88.74
2023-02-06T19:17:09.877Z,88.97
2023-02-06T19:19:38.173Z,89.07
2023-02-06T19:22:06.974Z,89.26
2023-02-06T19:24:38.460Z,89.41
2023-02-06T19:27:11.657Z,89.54
2023-02-06T19:29:40.078Z,89.65
2023-02-06T19:32:10.250Z,89.79
2023-02-06T19:34:40.407Z,89.81
2023-02-06T19:37:11.594Z,90.02
2023-02-06T19:39:43.296Z,89.89
2023-02-06T19:42:17.137Z,89.87
2023-02-06T19:44:45.868Z,89.98
2023-02-06T19:47:29.488Z,90.34
2023-02-06T19:49:59.324Z,90.74
2023-02-06T19:52:35.402Z,90.57
2023-02-06T19:55:05.202Z,90.31
2023-02-06T19:57:34.009Z,90.46
2023-02-06T20:00:02.577Z,90.58
2023-02-06T20:02:34.203Z,90.66
2023-02-06T20:05:05.782Z,90.56
2023-02-06T20:07:39.890Z,90.44
2023-02-06T20:10:09.028Z,90.35
2023-02-06T20:12:38.006Z,90.60
2023-02-06T20:15:07.064Z,90.46
2023-02-06T20:17:37.946Z,90.15
2023-02-06T20:20:13.319Z,90.29
2023-02-06T20:22:41.632Z,90.73
2023-02-06T20:25:10.178Z,90.91
2023-02-06T20:27:44.188Z,90.90
2023-02-06T20:30:13.543Z,90.44
2023-02-06T20:32:41.881Z,90.13
2023-02-06T20:35:10.573Z,90.23
2023-02-06T20:37:38.984Z,90.42
2023-02-06T20:40:07.729Z,90.61
2023-02-06T20:42:39.760Z,90.51
2023-02-06T20:45:08.830Z,90.65
2023-02-06T20:47:37.216Z,90.45
2023-02-06T20:50:09.677Z,90.15
2023-02-06T20:52:38.135Z,90.21
2023-02-06T20:55:06.560Z,90.20
2023-02-06T20:57:36.587Z,90.32
2023-02-06T21:00:06.674Z,90.55
2023-02-06T21:02:35.203Z,90.65
2023-02-06T21:05:03.745Z,90.63
2023-02-06T21:07:33.806Z,90.62
2023-02-06T21:10:04.423Z,90.76
2023-02-06T21:12:32.768Z,91.02
2023-02-06T21:15:00.936Z,90.96
2023-02-06T21:17:29.161Z,90.91
2023-02-06T21:19:58.509Z,91.02
2023-02-06T21:22:26.728Z,91.42
2023-02-06T21:24:55.043Z,91.83
2023-02-06T21:27:23.382Z,92.01
2023-02-06T21:29:54.234Z,92.01
2023-02-06T21:32:23.121Z,92.25
2023-02-06T21:34:52.065Z,92.50
2023-02-06T21:37:22.768Z,92.87
2023-02-06T21:39:51.062Z,93.19
2023-02-06T21:42:26.383Z,93.55
2023-02-06T21:44:58.424Z,93.74
2023-02-06T21:47:26.683Z,93.87
2023-02-06T21:49:55.229Z,93.97
2023-02-06T21:52:23.444Z,94.11
2023-02-06T21:54:51.685Z,94.13
2023-02-06T21:57:20.114Z,94.08
2023-02-06T21:59:48.366Z,94.18
2023-02-06T22:02:16.570Z,94.26
2023-02-06T22:04:45.859Z,94.22
2023-02-06T22:07:14.228Z,94.22
2023-02-06T22:09:42.483Z,94.28
2023-02-06T22:12:10.741Z,94.25
2023-02-06T22:14:38.977Z,94.10
2023-02-06T22:17:07.185Z,93.99
2023-02-06T22:19:37.867Z,93.95
2023-02-06T22:22:06.052Z,93.72
2023-02-06T22:24:34.200Z,93.43
2023-02-06T22:27:02.437Z,93.32
2023-02-06T22:29:30.678Z,93.26
2023-02-06T22:31:58.852Z,93.18
2023-02-06T22:34:27.149Z,93.38
2023-02-06T22:36:56.590Z,93.28
2023-02-06T22:39:25.069Z,93.50
2023-02-06T22:41:53.322Z,93.57
2023-02-06T22:44:21.699Z,93.65
2023-02-06T22:46:52.873Z,93.71
2023-02-06T22:49:22.035Z,93.55
2023-02-06T22:51:50.906Z,93.47
2023-02-06T22:54:19.168Z,93.50
2023-02-06T22:56:47.725Z,93.64
2023-02-06T22:59:19.177Z,93.72
2023-02-06T23:01:49.984Z,93.78
2023-02-06T23:04:24.684Z,93.81
2023-02-06T23:06:57.603Z,93.70
2023-02-06T23:09:28.673Z,93.80
2023-02-06T23:12:01.074Z,94.19
2023-02-06T23:14:32.768Z,94.47
2023-02-06T23:17:03.182Z,94.70
2023-02-06T23:19:31.799Z,94.60
2023-02-06T23:22:00.111Z,94.44
2023-02-06T23:24:28.362Z,94.33
2023-02-06T23:26:56.671Z,94.42
2023-02-06T23:29:26.241Z,94.61
2023-02-06T23:31:55.668Z,94.92
2023-02-06T23:34:24.577Z,95.21
2023-02-06T23:36:53.167Z,95.60
2023-02-06T23:39:21.915Z,95.93
2023-02-06T23:41:50.272Z,96.29
2023-02-06T23:44:18.790Z,96.50
2023-02-06T23:46:47.850Z,96.79
2023-02-06T23:49:16.384Z,96.90
2023-02-06T23:51:44.669Z,97.06
2023-02-06T23:54:13.052Z,97.21
2023-02-06T23:56:41.447Z,97.24
2023-02-06T23:59:10.690Z,97.31
